Time;durP1;ratioP1;P1;durP2;ratioP2;P2;SDS_P1;SDS_P2;PMS_P1;PMS_P2;Temp;Humidity;BMP_temperature;BMP_pressure;BME280_temperature;BME280_humidity;BME280_pressure;Samples;Min_cycle;Max_cycle;Signal;HPM_P1;HPM_P2
2023/05/01 00:01:58;;;;;;;7.47;5.10;;;11.00;99.90;;;;;;5113359;28;20449;-63
2023/05/01 00:04:25;;;;;;;9.63;5.68;;;11.00;99.90;;;;;;5113099;28;20051;-62
2023/05/01 00:06:51;;;;;;;8.27;5.57;;;11.00;99.90;;;;;;5112806;28;20090;-63
2023/05/01 00:09:17;;;;;;;8.95;5.22;;;11.00;99.90;;;;;;5118680;27;20505;-63
2023/05/01 00:11:45;;;;;;;8.27;5.55;;;10.90;99.90;;;;;;5133308;27;20544;-63
2023/05/01 00:14:11;;;;;;;7.50;5.75;;;10.90;99.90;;;;;;5115180;27;20075;-63
2023/05/01 00:16:37;;;;;;;7.55;5.78;;;10.90;99.90;;;;;;5133921;27;20070;-63
2023/05/01 00:19:03;;;;;;;8.40;5.15;;;10.90;99.90;;;;;;5126907;27;20043;-63
2023/05/01 00:21:30;;;;;;;7.88;5.03;;;10.90;99.90;;;;;;5112962;28;20047;-63
2023/05/01 00:23:56;;;;;;;7.68;5.30;;;10.90;99.90;;;;;;5094531;28;20071;-62
2023/05/01 00:26:25;;;;;;;8.57;5.30;;;10.90;99.90;;;;;;5094459;28;20051;-63
2023/05/01 00:28:52;;;;;;;6.43;5.15;;;10.90;99.90;;;;;;5115394;27;20463;-63
2023/05/01 00:31:18;;;;;;;8.13;4.97;;;10.90;99.90;;;;;;5133267;27;20119;-63
2023/05/01 00:33:45;;;;;;;6.55;4.93;;;10.80;99.90;;;;;;5132982;27;20130;-63
2023/05/01 00:36:11;;;;;;;6.75;5.55;;;10.80;99.90;;;;;;5132987;27;20079;-63
2023/05/01 00:38:37;;;;;;;7.60;5.53;;;10.80;99.90;;;;;;5130993;27;20039;-63
2023/05/01 00:41:03;;;;;;;10.50;5.95;;;10.70;99.90;;;;;;5112861;28;20051;-62
2023/05/01 00:43:30;;;;;;;10.07;6.05;;;10.70;99.90;;;;;;5112249;28;20057;-63
2023/05/01 00:45:56;;;;;;;8.23;5.72;;;10.70;99.90;;;;;;5094284;28;20047;-63
2023/05/01 00:48:22;;;;;;;10.32;5.97;;;10.60;99.90;;;;;;5112165;28;20111;-64
2023/05/01 00:50:49;;;;;;;6.63;5.30;;;10.60;99.90;;;;;;5131473;27;20075;-63
2023/05/01 00:53:15;;;;;;;8.93;6.18;;;10.50;99.90;;;;;;5133028;27;20346;-63
2023/05/01 00:55:42;;;;;;;7.50;5.53;;;10.50;99.90;;;;;;5132843;27;20063;-62
2023/05/01 00:58:10;;;;;;;9.50;5.82;;;10.50;99.90;;;;;;5132392;27;20125;-64
2023/05/01 01:00:37;;;;;;;9.70;5.63;;;10.40;99.90;;;;;;5114297;27;20079;-63
2023/05/01 01:03:04;;;;;;;8.60;5.57;;;10.40;99.90;;;;;;5112224;28;20123;-63
2023/05/01 01:05:34;;;;;;;9.40;6.35;;;10.40;99.90;;;;;;5112163;28;20047;-62
2023/05/01 01:08:13;;;;;;;7.25;5.65;;;10.40;99.90;;;;;;5093435;28;20048;-62
2023/05/01 01:11:18;;;;;;;7.55;5.80;;;10.30;99.90;;;;;;5130318;27;20147;-63
2023/05/01 01:14:25;;;;;;;9.65;6.82;;;10.30;99.90;;;;;;5111316;28;20050;-63
2023/05/01 01:17:07;;;;;;;7.20;5.60;;;10.20;99.90;;;;;;5132130;28;20053;-62
2023/05/01 01:19:43;;;;;;;10.95;6.63;;;10.10;99.90;;;;;;5122975;28;20063;-63
2023/05/01 01:22:17;;;;;;;9.52;6.10;;;10.10;99.90;;;;;;5115055;28;20115;-63
2023/05/01 01:25:11;;;;;;;7.78;6.47;;;10.10;99.90;;;;;;5116524;28;20083;-64
2023/05/01 01:28:19;;;;;;;7.65;5.90;;;10.10;99.90;;;;;;5115525;28;20063;-62
2023/05/01 01:30:57;;;;;;;;;;;10.00;99.90;;;;;;5109453;28;20130;-63
2023/05/01 01:33:53;;;;;;;9.55;5.88;;;10.00;99.90;;;;;;5116207;28;19942;-62
2023/05/01 01:36:28;;;;;;;13.85;6.90;;;10.00;99.90;;;;;;5115924;28;20126;-63
2023/05/01 01:39:22;;;;;;;9.43;5.78;;;9.90;99.90;;;;;;5097273;28;20697;-63
2023/05/01 01:41:51;;;;;;;9.27;5.60;;;9.90;99.90;;;;;;5116178;28;20036;-63
2023/05/01 01:44:36;;;;;;;8.30;5.55;;;9.90;99.90;;;;;;5115601;28;20424;-63
2023/05/01 01:47:09;;;;;;;9.23;5.45;;;9.90;99.90;;;;;;5115094;28;20440;-63
2023/05/01 01:49:40;;;;;;;10.32;6.10;;;9.90;99.90;;;;;;5108840;28;20147;-62
2023/05/01 01:52:09;;;;;;;8.13;5.82;;;9.90;99.90;;;;;;5115860;28;20044;-62
2023/05/01 01:54:40;;;;;;;7.32;6.20;;;9.90;99.90;;;;;;5081252;28;20090;-63
2023/05/01 01:57:11;;;;;;;9.85;6.20;;;9.90;99.90;;;;;;5115517;28;20471;-62
2023/05/01 01:59:40;;;;;;;6.80;5.30;;;9.80;99.90;;;;;;5115586;28;20126;-62
2023/05/01 02:02:07;;;;;;;8.18;5.75;;;9.80;99.90;;;;;;5115900;28;20044;-63
2023/05/01 02:04:35;;;;;;;9.98;6.65;;;9.80;99.90;;;;;;5115717;28;20400;-63
2023/05/01 02:07:03;;;;;;;9.77;6.32;;;9.70;99.90;;;;;;5114744;28;20328;-64
2023/05/01 02:09:30;;;;;;;8.27;5.78;;;9.70;99.90;;;;;;5096907;28;20143;-63
2023/05/01 02:11:57;;;;;;;7.45;5.47;;;9.60;99.90;;;;;;5115597;28;20043;-63
2023/05/01 02:14:25;;;;;;;9.18;6.20;;;9.60;99.90;;;;;;5115319;28;20044;-63
2023/05/01 02:16:52;;;;;;;8.45;6.63;;;9.50;99.90;;;;;;5115339;28;20405;-63
2023/05/01 02:19:20;;;;;;;10.82;6.10;;;9.50;99.90;;;;;;5096299;28;20436;-62
2023/05/01 02:21:48;;;;;;;8.82;6.57;;;9.40;99.90;;;;;;5114721;28;20161;-63
2023/05/01 02:24:15;;;;;;;10.32;5.80;;;9.40;99.90;;;;;;5097228;28;20124;-63
2023/05/01 02:26:48;;;;;;;10.00;5.70;;;9.30;99.90;;;;;;5096525;28;20131;-62
2023/05/01 02:29:14;;;;;;;12.18;5.82;;;9.40;99.90;;;;;;5120115;27;20073;-63
2023/05/01 02:31:41;;;;;;;10.40;5.90;;;9.30;99.90;;;;;;5116459;27;20126;-63
2023/05/01 02:34:07;;;;;;;10.27;6.32;;;9.30;99.90;;;;;;5135535;27;20089;-63
2023/05/01 02:36:34;;;;;;;8.30;5.72;;;9.20;99.90;;;;;;5135698;27;20054;-63
2023/05/01 02:39:00;;;;;;;8.30;5.78;;;9.20;99.90;;;;;;5131158;27;20114;-63
2023/05/01 02:41:27;;;;;;;10.18;6.57;;;9.20;99.90;;;;;;5096635;28;20091;-63
2023/05/01 02:44:00;;;;;;;10.52;5.90;;;9.10;99.90;;;;;;5114562;28;20151;-64
2023/05/01 02:46:29;;;;;;;8.60;5.55;;;9.10;99.90;;;;;;5114987;28;20044;-63
2023/05/01 02:48:58;;;;;;;7.60;5.68;;;9.00;99.90;;;;;;5116854;27;20058;-63
2023/05/01 02:51:26;;;;;;;6.70;5.65;;;9.00;99.90;;;;;;5135290;27;20049;-64
2023/05/01 02:53:54;;;;;;;7.53;5.43;;;9.00;99.90;;;;;;5117159;27;20434;-63
2023/05/01 02:56:20;;;;;;;8.95;6.25;;;8.90;99.90;;;;;;5116825;27;20058;-63
2023/05/01 02:58:48;;;;;;;8.95;6.00;;;8.90;99.90;;;;;;5080550;27;20047;-63
2023/05/01 03:01:14;;;;;;;8.57;5.72;;;8.90;99.90;;;;;;5114637;28;20058;-62
2023/05/01 03:03:40;;;;;;;10.02;5.88;;;8.80;99.90;;;;;;5096022;28;20437;-63
2023/05/01 03:06:07;;;;;;;8.63;5.85;;;8.70;99.90;;;;;;5114587;28;20094;-63
2023/05/01 03:08:35;;;;;;;8.82;5.45;;;8.70;99.90;;;;;;5113629;27;20443;-63
2023/05/01 03:11:05;;;;;;;7.07;5.63;;;8.70;99.90;;;;;;5113988;28;20044;-63
2023/05/01 03:13:32;;;;;;;9.15;5.63;;;8.70;99.90;;;;;;5114171;28;20462;-63
2023/05/01 03:15:59;;;;;;;10.05;6.13;;;8.60;99.90;;;;;;5114231;28;20090;-64
2023/05/01 03:18:25;;;;;;;9.85;6.47;;;8.70;99.90;;;;;;5113818;28;20051;-63
2023/05/01 03:20:58;;;;;;;10.15;5.90;;;8.60;99.90;;;;;;5132753;27;20051;-62
2023/05/01 03:23:24;;;;;;;9.10;5.53;;;8.60;99.90;;;;;;5134818;27;20142;-63
2023/05/01 03:25:51;;;;;;;8.43;6.25;;;8.60;99.90;;;;;;5134354;27;20119;-63
2023/05/01 03:28:17;;;;;;;7.72;6.15;;;8.50;99.90;;;;;;5134238;27;20082;-62
2023/05/01 03:30:44;;;;;;;7.68;5.90;;;8.50;99.90;;;;;;5116371;27;20079;-63
2023/05/01 03:33:10;;;;;;;9.23;5.53;;;8.50;99.90;;;;;;5095499;28;20059;-63
2023/05/01 03:35:36;;;;;;;7.82;5.88;;;8.40;99.90;;;;;;5113789;28;20055;-64
2023/05/01 03:38:03;;;;;;;10.07;6.53;;;8.40;99.90;;;;;;5113853;28;20122;-63
2023/05/01 03:40:29;;;;;;;9.60;5.85;;;8.40;99.90;;;;;;5111177;27;20166;-63
2023/05/01 03:42:55;;;;;;;9.27;5.60;;;8.40;99.90;;;;;;5134077;27;20085;-63
2023/05/01 03:45:21;;;;;;;8.63;5.90;;;8.40;99.90;;;;;;5115596;27;20130;-63
2023/05/01 03:47:48;;;;;;;8.55;5.90;;;8.40;99.90;;;;;;5133527;27;20369;-64
2023/05/01 03:50:15;;;;;;;9.00;5.63;;;8.40;99.90;;;;;;5120595;27;20488;-63
2023/05/01 03:52:41;;;;;;;9.55;5.88;;;8.40;99.90;;;;;;5113395;28;20443;-63
2023/05/01 03:55:08;;;;;;;7.00;5.78;;;8.40;99.90;;;;;;5113538;28;20043;-63
2023/05/01 03:57:34;;;;;;;8.25;5.43;;;8.30;99.90;;;;;;5113153;28;20044;-64
2023/05/01 04:00:00;;;;;;;8.63;6.03;;;8.30;99.90;;;;;;5124448;27;20047;-63
2023/05/01 04:02:26;;;;;;;9.88;5.57;;;8.30;99.90;;;;;;5133777;27;20090;-63
2023/05/01 04:04:53;;;;;;;9.65;5.40;;;8.20;99.90;;;;;;5133652;27;20043;-63
2023/05/01 04:07:19;;;;;;;10.82;6.40;;;8.20;99.90;;;;;;5097942;27;20511;-63
2023/05/01 04:09:47;;;;;;;8.73;5.38;;;8.20;99.90;;;;;;5105652;28;20131;-63
2023/05/01 04:12:13;;;;;;;9.30;5.57;;;8.20;99.90;;;;;;5103774;27;20173;-62
2023/05/01 04:14:39;;;;;;;9.73;5.90;;;8.20;99.90;;;;;;5133856;27;20072;-63
2023/05/01 04:17:05;;;;;;;7.78;6.47;;;8.20;99.90;;;;;;5133622;27;20561;-63
2023/05/01 04:19:33;;;;;;;7.18;5.20;;;8.20;99.90;;;;;;5126387;27;20047;-63
2023/05/01 04:22:00;;;;;;;9.35;5.88;;;8.20;99.90;;;;;;5079008;28;20066;-63
2023/05/01 04:24:26;;;;;;;7.68;5.97;;;8.20;99.90;;;;;;5113121;28;20116;-63
2023/05/01 04:26:52;;;;;;;8.60;5.68;;;8.20;99.90;;;;;;5112487;28;20143;-64
2023/05/01 04:29:19;;;;;;;8.52;5.60;;;8.20;99.90;;;;;;5107491;28;20051;-63
2023/05/01 04:31:46;;;;;;;9.77;5.82;;;8.20;99.90;;;;;;5094698;28;20053;-63
2023/05/01 04:34:12;;;;;;;9.38;6.35;;;8.20;99.90;;;;;;5112732;28;20416;-64
2023/05/01 04:36:39;;;;;;;9.13;6.22;;;8.30;99.90;;;;;;5112605;28;20383;-64
2023/05/01 04:39:05;;;;;;;9.73;6.03;;;8.30;99.90;;;;;;5094551;28;20464;-62
2023/05/01 04:41:31;;;;;;;9.82;5.50;;;8.30;99.90;;;;;;5112698;28;20146;-63
2023/05/01 04:43:58;;;;;;;8.90;6.38;;;8.30;99.90;;;;;;5112662;28;20361;-64
2023/05/01 04:46:24;;;;;;;7.97;5.40;;;8.40;99.90;;;;;;5112799;28;20044;-63
2023/05/01 04:48:50;;;;;;;8.07;5.25;;;8.50;99.90;;;;;;5110706;28;20146;-62
2023/05/01 04:51:16;;;;;;;10.07;6.50;;;8.50;99.90;;;;;;5108512;28;20079;-63
2023/05/01 04:53:43;;;;;;;7.88;5.53;;;8.50;99.90;;;;;;5112330;28;20071;-63
2023/05/01 04:56:09;;;;;;;9.05;5.38;;;8.60;99.90;;;;;;5090014;28;20097;-63
2023/05/01 04:58:35;;;;;;;10.52;5.85;;;8.70;99.90;;;;;;5097229;28;20154;-63
2023/05/01 05:01:01;;;;;;;9.40;6.30;;;8.90;99.90;;;;;;5114670;28;20066;-63
2023/05/01 05:03:28;;;;;;;9.77;5.75;;;9.10;99.90;;;;;;5096460;28;20095;-63
2023/05/01 05:05:54;;;;;;;9.30;6.25;;;9.10;99.90;;;;;;5113866;28;20047;-63
2023/05/01 05:08:20;;;;;;;11.30;5.40;;;9.20;99.90;;;;;;5116520;27;20044;-63
2023/05/01 05:10:47;;;;;;;9.27;6.43;;;9.30;99.90;;;;;;5118347;27;20051;-63
2023/05/01 05:13:13;;;;;;;9.43;5.00;;;9.40;99.90;;;;;;5108626;28;20047;-63
2023/05/01 05:15:39;;;;;;;10.40;6.38;;;9.60;99.90;;;;;;5118494;27;20039;-63
2023/05/01 05:18:05;;;;;;;9.77;5.63;;;9.70;99.90;;;;;;5112253;28;20074;-62
2023/05/01 05:20:32;;;;;;;8.40;5.68;;;9.90;99.90;;;;;;5111645;28;20068;-63
2023/05/01 05:22:58;;;;;;;8.88;5.65;;;10.00;99.90;;;;;;5112313;28;20170;-63
2023/05/01 05:25:24;;;;;;;7.93;5.57;;;10.00;99.90;;;;;;5112241;28;20057;-63
2023/05/01 05:27:50;;;;;;;8.27;5.60;;;10.20;99.90;;;;;;5111201;28;20444;-63
2023/05/01 05:30:17;;;;;;;8.43;5.20;;;10.30;99.90;;;;;;5111826;28;20481;-62
2023/05/01 05:32:46;;;;;;;7.80;5.53;;;10.50;99.90;;;;;;5111873;28;20166;-63
2023/05/01 05:35:13;;;;;;;9.43;5.57;;;10.60;99.90;;;;;;5093540;28;20075;-63
2023/05/01 05:37:39;;;;;;;8.48;5.70;;;10.50;99.90;;;;;;5111319;28;20102;-62
2023/05/01 05:40:06;;;;;;;12.05;6.43;;;10.80;99.90;;;;;;5093196;28;20409;-63
2023/05/01 05:42:33;;;;;;;7.95;5.63;;;10.90;99.90;;;;;;5093447;28;20116;-62
2023/05/01 05:44:59;;;;;;;9.50;5.22;;;10.90;99.90;;;;;;5093358;28;20090;-63
2023/05/01 05:47:25;;;;;;;8.02;5.95;;;10.90;99.90;;;;;;5111577;28;20079;-64
2023/05/01 05:49:54;;;;;;;7.53;6.25;;;11.00;99.90;;;;;;5092973;28;20044;-63
2023/05/01 05:52:20;;;;;;;8.68;5.78;;;11.00;99.90;;;;;;5111452;28;20052;-63
2023/05/01 05:54:46;;;;;;;9.57;5.25;;;11.30;99.90;;;;;;5111776;28;20102;-63
2023/05/01 05:57:13;;;;;;;9.05;5.75;;;11.50;99.90;;;;;;5111441;28;20048;-63
2023/05/01 05:59:39;;;;;;;8.48;5.53;;;11.70;99.90;;;;;;5111398;28;20079;-63
2023/05/01 06:02:06;;;;;;;8.68;5.32;;;11.90;99.90;;;;;;5112126;28;20048;-63
2023/05/01 06:04:32;;;;;;;8.88;5.22;;;11.90;99.90;;;;;;5093674;28;20056;-63
2023/05/01 06:06:59;;;;;;;10.35;5.28;;;12.00;99.90;;;;;;5112391;28;20051;-63
2023/05/01 06:09:25;;;;;;;8.57;5.07;;;12.10;99.90;;;;;;5097263;28;20051;-63
2023/05/01 06:11:51;;;;;;;10.18;5.70;;;12.30;99.90;;;;;;5115236;28;20044;-63
2023/05/01 06:14:18;;;;;;;9.48;4.90;;;12.50;99.90;;;;;;5115413;28;20059;-63
2023/05/01 06:16:44;;;;;;;7.85;5.85;;;12.60;99.90;;;;;;5114911;28;20152;-63
2023/05/01 06:19:24;;;;;;;9.35;5.53;;;12.80;99.90;;;;;;5099120;28;20044;-63
2023/05/01 06:21:51;;;;;;;9.07;6.20;;;12.70;99.90;;;;;;5115494;28;20473;-63
2023/05/01 06:24:17;;;;;;;8.77;5.25;;;12.80;99.90;;;;;;5115020;28;20075;-63
2023/05/01 06:26:43;;;;;;;10.25;5.43;;;13.00;99.90;;;;;;5114343;28;20447;-63
2023/05/01 06:29:09;;;;;;;9.13;5.20;;;13.10;99.90;;;;;;5114775;28;21486;-64
2023/05/01 06:31:36;;;;;;;8.70;6.20;;;13.20;99.90;;;;;;5115194;28;20040;-63
2023/05/01 06:34:02;;;;;;;8.45;4.97;;;13.10;99.90;;;;;;5115026;28;20446;-63
2023/05/01 06:36:28;;;;;;;7.57;5.80;;;13.10;99.90;;;;;;5114557;28;20160;-63
2023/05/01 06:38:54;;;;;;;7.55;5.25;;;13.00;99.90;;;;;;5096363;28;20040;-63
2023/05/01 06:41:21;;;;;;;8.23;5.20;;;12.90;99.90;;;;;;5114880;28;20058;-63
2023/05/01 06:43:47;;;;;;;11.43;5.05;;;12.80;99.90;;;;;;5115094;28;20055;-64
2023/05/01 06:46:14;;;;;;;11.25;5.95;;;12.60;99.90;;;;;;5114960;28;20416;-63
2023/05/01 06:48:40;;;;;;;7.88;5.80;;;12.40;99.90;;;;;;5114728;28;20106;-63
2023/05/01 06:51:06;;;;;;;9.95;5.38;;;12.40;99.90;;;;;;5096671;28;20048;-63
2023/05/01 06:53:33;;;;;;;9.48;5.32;;;12.20;99.90;;;;;;5096708;28;20059;-63
2023/05/01 06:55:59;;;;;;;10.02;5.32;;;12.00;99.90;;;;;;5115045;28;20054;-63
2023/05/01 06:58:26;;;;;;;6.80;4.70;;;11.90;99.90;;;;;;5096044;28;20048;-63
2023/05/01 07:00:53;;;;;;;9.60;5.40;;;12.00;99.90;;;;;;5114442;28;20058;-63
2023/05/01 07:03:19;;;;;;;9.45;5.60;;;12.00;99.90;;;;;;5114792;28;20139;-63
2023/05/01 07:05:45;;;;;;;9.55;5.57;;;12.10;99.90;;;;;;5114593;28;20051;-64
2023/05/01 07:08:13;;;;;;;8.90;5.65;;;12.20;99.90;;;;;;5095891;28;20058;-63
2023/05/01 07:10:39;;;;;;;8.07;5.30;;;12.20;99.90;;;;;;5095952;28;20090;-64
2023/05/01 07:13:05;;;;;;;9.73;5.97;;;12.40;99.90;;;;;;5114658;28;20083;-63
2023/05/01 07:15:33;;;;;;;8.32;5.80;;;12.80;99.90;;;;;;5114560;28;20086;-64
2023/05/01 07:18:01;;;;;;;8.43;5.88;;;13.20;99.90;;;;;;5113343;28;20055;-63
2023/05/01 07:20:27;;;;;;;6.75;5.03;;;13.60;99.90;;;;;;5095049;28;20524;-63
2023/05/01 07:22:54;;;;;;;9.48;5.28;;;14.20;99.90;;;;;;5114426;28;20071;-63
2023/05/01 07:25:20;;;;;;;7.25;5.78;;;14.50;99.90;;;;;;5114168;28;20047;-63
2023/05/01 07:27:46;;;;;;;9.70;5.85;;;14.80;99.90;;;;;;5113394;28;20404;-64
2023/05/01 07:30:12;;;;;;;10.65;5.18;;;14.90;99.90;;;;;;5095804;28;20051;-64
2023/05/01 07:32:39;;;;;;;7.97;5.38;;;15.00;99.90;;;;;;5113949;28;20055;-64
2023/05/01 07:35:06;;;;;;;12.50;5.78;;;14.90;99.90;;;;;;5114157;28;20419;-64
2023/05/01 07:37:33;;;;;;;6.70;5.18;;;15.10;99.90;;;;;;5095571;28;20047;-64
2023/05/01 07:39:59;;;;;;;10.35;6.13;;;15.20;99.90;;;;;;5095549;28;20493;-64
2023/05/01 07:42:28;;;;;;;9.75;5.30;;;15.20;99.90;;;;;;5096038;28;20051;-64
2023/05/01 07:44:55;;;;;;;7.22;5.28;;;15.30;99.90;;;;;;5095489;28;20062;-64
2023/05/01 07:47:21;;;;;;;8.85;6.05;;;15.40;99.90;;;;;;5095173;28;20459;-63
2023/05/01 07:49:48;;;;;;;8.02;5.80;;;15.40;99.90;;;;;;5094828;28;20421;-64
2023/05/01 07:52:14;;;;;;;9.65;5.03;;;15.40;99.90;;;;;;5113403;28;20438;-63
2023/05/01 07:54:41;;;;;;;10.27;4.75;;;15.40;99.90;;;;;;5113676;28;20126;-64
2023/05/01 07:57:07;;;;;;;9.02;5.88;;;15.40;99.90;;;;;;5113183;28;20090;-64
2023/05/01 07:59:33;;;;;;;9.82;5.38;;;15.30;99.90;;;;;;5095431;28;20047;-64
2023/05/01 08:01:59;;;;;;;7.18;4.85;;;15.30;99.90;;;;;;5113822;28;20078;-64
2023/05/01 08:04:26;;;;;;;6.63;4.75;;;15.40;99.90;;;;;;5112751;28;20486;-64
2023/05/01 08:06:53;;;;;;;11.77;5.10;;;15.30;99.90;;;;;;5112973;28;20078;-64
2023/05/01 08:09:19;;;;;;;8.70;5.32;;;15.10;99.90;;;;;;5112723;28;20063;-63
2023/05/01 08:11:45;;;;;;;9.27;5.35;;;15.10;99.90;;;;;;5113044;28;20058;-64
2023/05/01 08:14:12;;;;;;;8.45;5.55;;;15.30;99.90;;;;;;5095233;28;20120;-64
2023/05/01 08:16:38;;;;;;;7.63;5.32;;;15.40;99.90;;;;;;5112688;28;20054;-64
2023/05/01 08:19:04;;;;;;;10.68;5.38;;;15.60;99.90;;;;;;5113287;28;20107;-64
2023/05/01 08:21:30;;;;;;;12.13;5.47;;;15.80;99.90;;;;;;5112733;28;20126;-64
2023/05/01 08:23:57;;;;;;;8.05;5.30;;;15.90;99.90;;;;;;5078343;28;20102;-64
2023/05/01 08:26:23;;;;;;;7.78;4.90;;;16.00;99.90;;;;;;5094187;28;20052;-64
2023/05/01 08:28:49;;;;;;;7.97;5.15;;;16.10;99.90;;;;;;5112812;28;20130;-64
2023/05/01 08:31:16;;;;;;;8.32;4.78;;;16.10;99.90;;;;;;5094306;28;20094;-64
2023/05/01 08:33:43;;;;;;;7.55;5.43;;;16.10;99.90;;;;;;5094732;28;20043;-64
2023/05/01 08:36:10;;;;;;;8.13;5.25;;;16.00;99.90;;;;;;5112590;28;20149;-64
2023/05/01 08:38:36;;;;;;;6.90;5.10;;;16.00;99.90;;;;;;5094612;28;20382;-64
2023/05/01 08:41:03;;;;;;;6.78;5.32;;;15.80;99.90;;;;;;5112442;28;20056;-63
2023/05/01 08:43:30;;;;;;;7.20;4.85;;;15.70;99.90;;;;;;5094594;28;20077;-64
2023/05/01 08:46:00;;;;;;;10.73;5.00;;;15.70;99.90;;;;;;5112667;28;20432;-64
2023/05/01 08:48:28;;;;;;;8.77;4.93;;;15.80;99.90;;;;;;5093743;28;20059;-64
2023/05/01 08:50:58;;;;;;;10.05;5.18;;;16.10;99.90;;;;;;5112106;28;20057;-64
2023/05/01 08:53:25;;;;;;;7.10;5.35;;;16.20;99.90;;;;;;5112445;28;20146;-64
2023/05/01 08:55:54;;;;;;;8.40;4.72;;;16.40;99.90;;;;;;5112534;28;20081;-64
2023/05/01 08:58:24;;;;;;;8.10;5.05;;;16.30;99.50;;;;;;5112038;28;20452;-64
2023/05/01 09:00:52;;;;;;;6.38;4.85;;;16.50;99.40;;;;;;5112096;28;20135;-64
2023/05/01 09:03:20;;;;;;;7.97;4.85;;;16.60;98.90;;;;;;5093976;28;20511;-64
2023/05/01 09:05:46;;;;;;;7.72;5.07;;;16.60;99.20;;;;;;5094000;28;20105;-64
2023/05/01 09:08:13;;;;;;;7.45;4.70;;;16.50;98.20;;;;;;5111639;28;20468;-64
2023/05/01 09:10:44;;;;;;;8.75;5.03;;;16.60;98.30;;;;;;5112202;28;20126;-64
2023/05/01 09:13:11;;;;;;;;;;;16.60;97.50;;;;;;5094598;28;20048;-63
2023/05/01 09:15:37;;;;;;;9.73;5.03;;;16.50;96.90;;;;;;5112261;28;19970;-64
2023/05/01 09:18:04;;;;;;;8.18;4.70;;;16.70;98.10;;;;;;5112216;28;20048;-64
2023/05/01 09:20:31;;;;;;;9.52;4.65;;;16.80;98.50;;;;;;5094105;28;20083;-64
2023/05/01 09:22:58;;;;;;;10.40;4.40;;;17.10;98.40;;;;;;5112361;28;20047;-64
2023/05/01 09:25:24;;;;;;;6.00;4.03;;;17.20;98.10;;;;;;5094772;28;20052;-65
2023/05/01 09:27:51;;;;;;;6.53;4.50;;;17.30;97.00;;;;;;5074083;28;20371;-64
2023/05/01 09:30:50;;;;;;;7.05;4.07;;;17.30;97.90;;;;;;5088594;28;20105;-64
2023/05/01 09:33:16;;;;;;;6.10;3.97;;;17.50;97.40;;;;;;5035414;28;20123;-65
2023/05/01 09:35:54;;;;;;;6.80;3.72;;;17.50;97.70;;;;;;5073680;28;20103;-64
2023/05/01 09:38:24;;;;;;;5.68;4.03;;;17.80;97.60;;;;;;5056938;28;20146;-64
2023/05/01 09:41:05;;;;;;;7.95;4.68;;;18.10;97.90;;;;;;5091496;28;20044;-64
2023/05/01 09:43:31;;;;;;;7.97;4.18;;;18.10;97.40;;;;;;5077277;28;20048;-64
2023/05/01 09:46:06;;;;;;;6.20;3.65;;;18.10;97.60;;;;;;5095535;28;20550;-64
2023/05/01 09:48:33;;;;;;;7.75;3.30;;;18.30;97.50;;;;;;5095429;28;20123;-64
2023/05/01 09:50:59;;;;;;;7.88;4.65;;;18.40;97.40;;;;;;5077110;28;20059;-64
2023/05/01 09:53:39;;;;;;;7.07;4.70;;;18.50;97.40;;;;;;5095445;28;20048;-64
2023/05/01 09:56:06;;;;;;;6.30;3.55;;;18.60;96.40;;;;;;5096050;28;20075;-64
2023/05/01 09:58:32;;;;;;;4.88;4.00;;;18.60;97.00;;;;;;5095038;28;20348;-64
2023/05/01 10:00:59;;;;;;;6.45;3.70;;;18.70;97.10;;;;;;5092664;28;20052;-64
2023/05/01 10:03:25;;;;;;;5.53;3.65;;;18.80;97.30;;;;;;5095647;28;20044;-64
2023/05/01 10:05:55;;;;;;;6.38;4.00;;;18.80;96.90;;;;;;5095408;28;20341;-64
2023/05/01 10:08:22;;;;;;;6.70;4.07;;;18.80;97.00;;;;;;5077769;28;20238;-64
2023/05/01 10:11:08;;;;;;;7.28;4.43;;;18.70;96.80;;;;;;5095885;28;20052;-64
2023/05/01 10:13:35;;;;;;;5.22;3.80;;;18.60;96.40;;;;;;5095491;28;20105;-64
2023/05/01 10:16:06;;;;;;;7.85;4.15;;;18.70;97.00;;;;;;5095025;28;20044;-64
2023/05/01 10:18:34;;;;;;;7.22;4.00;;;18.90;96.60;;;;;;5094597;28;20048;-64
2023/05/01 10:21:01;;;;;;;5.10;3.85;;;19.10;96.60;;;;;;5092146;28;20043;-64
2023/05/01 10:23:28;;;;;;;6.32;4.15;;;19.30;96.90;;;;;;5095472;28;20164;-64
2023/05/01 10:25:57;;;;;;;6.30;4.38;;;19.20;96.70;;;;;;5097804;28;20062;-64
2023/05/01 10:28:24;;;;;;;6.15;3.92;;;19.10;96.70;;;;;;5114694;28;20134;-64
2023/05/01 10:30:51;;;;;;;8.40;4.50;;;18.90;96.60;;;;;;5096806;28;20147;-64
2023/05/01 10:33:18;;;;;;;6.68;4.03;;;18.70;96.80;;;;;;5080264;28;20127;-64
2023/05/01 10:35:49;;;;;;;10.90;4.72;;;18.90;97.00;;;;;;5114801;28;20043;-64
2023/05/01 10:38:25;;;;;;;7.95;5.18;;;19.00;96.90;;;;;;5096333;28;20047;-64
2023/05/01 10:40:52;;;;;;;6.90;4.25;;;18.80;96.80;;;;;;5096700;28;20106;-64
2023/05/01 10:43:26;;;;;;;7.00;4.22;;;18.90;97.50;;;;;;5114898;28;20112;-64
2023/05/01 10:46:17;;;;;;;8.27;4.35;;;18.90;97.50;;;;;;5115100;28;20087;-64
2023/05/01 10:48:44;;;;;;;6.18;3.88;;;18.70;97.20;;;;;;5114899;28;20079;-64
2023/05/01 10:51:11;;;;;;;8.98;4.45;;;18.50;97.40;;;;;;5096428;28;20142;-64
2023/05/01 10:53:39;;;;;;;5.78;3.53;;;18.60;97.80;;;;;;5114810;28;20079;-64
2023/05/01 10:56:28;;;;;;;8.00;4.68;;;18.90;97.80;;;;;;5096520;28;20137;-64
2023/05/01 10:58:57;;;;;;;6.45;4.00;;;18.80;97.30;;;;;;5114476;28;20062;-64
2023/05/01 11:01:33;;;;;;;7.43;4.10;;;18.80;97.80;;;;;;5096151;28;20146;-63
2023/05/01 11:04:26;;;;;;;6.57;3.70;;;18.90;97.40;;;;;;5114289;28;20460;-64
2023/05/01 11:07:04;;;;;;;5.78;3.70;;;19.10;97.70;;;;;;5114107;28;20059;-64
2023/05/01 11:09:40;;;;;;;6.88;3.83;;;19.00;97.10;;;;;;5096121;28;20047;-64
2023/05/01 11:12:09;;;;;;;4.75;3.47;;;19.10;97.10;;;;;;5114255;28;20411;-64
2023/05/01 11:15:01;;;;;;;7.50;3.20;;;19.10;96.90;;;;;;5114519;28;20058;-64
2023/05/01 11:17:39;;;;;;;4.95;2.97;;;19.20;96.70;;;;;;5113813;28;20112;-64
2023/05/01 11:20:10;;;;;;;6.07;3.05;;;19.20;96.30;;;;;;5111816;28;20047;-64
2023/05/01 11:22:44;;;;;;;4.30;2.05;;;19.30;96.30;;;;;;5114656;28;20120;-65
2023/05/01 11:25:20;;;;;;;6.30;2.55;;;19.50;96.60;;;;;;5114474;28;20113;-64
2023/05/01 11:27:48;;;;;;;6.50;2.60;;;19.70;95.50;;;;;;5113436;28;20055;-64
2023/05/01 11:30:15;;;;;;;4.82;2.38;;;19.70;96.10;;;;;;5114030;28;20058;-64
2023/05/01 11:32:44;;;;;;;3.15;2.00;;;19.60;95.70;;;;;;5114109;28;20105;-64
2023/05/01 11:35:27;;;;;;;3.72;2.20;;;19.80;96.00;;;;;;5095658;28;20124;-64
2023/05/01 11:37:56;;;;;;;4.43;2.47;;;19.90;96.00;;;;;;5095721;28;20066;-64
2023/05/01 11:40:31;;;;;;;5.35;3.03;;;19.70;95.40;;;;;;5095559;28;20039;-64
2023/05/01 11:43:04;;;;;;;3.45;2.45;;;19.60;95.30;;;;;;5113454;28;20089;-64
2023/05/01 11:45:31;;;;;;;5.65;3.22;;;19.60;95.80;;;;;;5095634;28;20476;-63
2023/05/01 11:47:58;;;;;;;4.47;2.53;;;19.50;96.10;;;;;;5095647;28;20097;-63
2023/05/01 11:50:37;;;;;;;3.22;2.55;;;19.70;96.00;;;;;;5112855;28;20106;-64
2023/05/01 11:53:14;;;;;;;5.95;3.10;;;19.90;95.80;;;;;;5113781;28;20063;-64
2023/05/01 11:55:40;;;;;;;6.25;2.92;;;19.60;95.70;;;;;;5113863;28;20073;-64
2023/05/01 11:58:07;;;;;;;3.83;2.67;;;19.60;95.90;;;;;;5113219;28;20329;-64
2023/05/01 12:00:36;;;;;;;3.47;2.30;;;19.80;95.80;;;;;;5111602;28;20044;-62
2023/05/01 12:03:11;;;;;;;5.00;2.53;;;20.00;95.70;;;;;;5113957;28;20119;-64
2023/05/01 12:05:42;;;;;;;5.00;2.78;;;20.00;95.50;;;;;;5112854;28;20344;-64
2023/05/01 12:08:20;;;;;;;7.45;3.22;;;20.10;94.90;;;;;;5112919;28;20043;-64
2023/05/01 12:10:54;;;;;;;4.50;2.53;;;20.10;95.00;;;;;;5095705;28;20051;-64
2023/05/01 12:13:21;;;;;;;4.20;3.00;;;20.00;95.10;;;;;;5113292;28;20051;-64
2023/05/01 12:15:50;;;;;;;4.70;2.65;;;20.20;95.60;;;;;;5113268;28;20435;-64
2023/05/01 12:18:17;;;;;;;4.88;2.53;;;20.40;95.40;;;;;;5095182;28;20431;-64
2023/05/01 12:20:52;;;;;;;5.03;2.80;;;20.60;95.10;;;;;;5111332;28;20054;-64
2023/05/01 12:23:29;;;;;;;4.95;2.58;;;20.70;95.20;;;;;;5113056;28;20048;-65
2023/05/01 12:25:55;;;;;;;5.10;2.92;;;20.90;95.00;;;;;;5113075;28;20051;-64
2023/05/01 12:28:22;;;;;;;4.50;2.92;;;21.00;95.00;;;;;;5112937;28;20044;-64
2023/05/01 12:30:48;;;;;;;6.32;3.63;;;21.00;95.00;;;;;;5112254;28;20370;-65
2023/05/01 12:33:19;;;;;;;5.40;3.67;;;21.10;94.70;;;;;;5113039;28;20047;-64
2023/05/01 12:35:47;;;;;;;5.50;3.88;;;20.90;94.70;;;;;;5095098;28;20044;-64
2023/05/01 12:38:19;;;;;;;6.32;4.30;;;21.00;94.90;;;;;;5094781;28;20453;-64
2023/05/01 12:40:57;;;;;;;8.75;3.85;;;20.80;94.70;;;;;;5094718;28;20063;-64
2023/05/01 12:43:34;;;;;;;6.03;4.15;;;21.00;94.70;;;;;;5112666;28;20119;-64
2023/05/01 12:46:03;;;;;;;8.00;4.05;;;20.90;94.70;;;;;;5112468;28;20463;-63
2023/05/01 12:48:31;;;;;;;6.82;3.70;;;20.80;94.40;;;;;;5112629;28;20062;-64
2023/05/01 12:50:59;;;;;;;6.03;3.67;;;20.90;94.70;;;;;;5111271;28;20044;-65
2023/05/01 12:53:27;;;;;;;9.07;4.38;;;20.80;95.30;;;;;;5094296;28;20124;-64
2023/05/01 12:55:57;;;;;;;6.82;3.92;;;20.90;94.80;;;;;;5112054;28;20051;-64
2023/05/01 12:58:36;;;;;;;6.88;3.78;;;21.00;94.80;;;;;;5112345;28;20039;-64